^^
B2 Weather Station Historical Data
Daily Summary for November 18, 2018 Units:  English    Metric   Both
Daily Weekly Monthly Yearly Custom
  High: Low: Average:
Temperature: 36.5 °F 27.0 °F 32.9 °F
Dew Point: 34.6 °F 25.0 °F 31 °F
Humidity: 95% 89% 93%
Wind Speed: 8.1mph 0.0mph 1.5mph
Wind Gust: 5.2mph - -
Wind- - SW
Pressure: 30.31 in 30.19 in -
Precipitation: 0.08 in    
Historical Graphs
 
 
Tabular Data for November 18, 2018
Time Temperature Dew Point Pressure Wind Wind Speed Wind Gust Humidity Rainfall Rate (Hourly) solar
00:05 34.4 °F 32.9 °F 30.31 in NE 6.9 mph 5.2 mph 94% 0.00 in 0.00 W/m2
00:09 34.4 °F 32.9 °F 30.31 in NNE 5.8 mph 3.0 mph 94% 0.00 in 0.00 W/m2
00:15 34.3 °F 32.8 °F 30.31 in NE 3.5 mph 2.8 mph 94% 0.00 in 0.00 W/m2
00:19 34.3 °F 32.8 °F 30.31 in NNE 4.6 mph 2.8 mph 94% 0.00 in 0.00 W/m2
00:25 34.3 °F 32.8 °F 30.31 in NNE 3.5 mph 2.9 mph 94% 0.00 in 0.00 W/m2
00:29 34.2 °F 32.7 °F 30.31 in NNE 4.6 mph 3.3 mph 94% 0.00 in 0.00 W/m2
00:34 34.2 °F 32.7 °F 30.31 in NNE 5.8 mph 3.7 mph 94% 0.00 in 0.00 W/m2
00:39 34.2 °F 32.7 °F 30.31 in NNE 6.0 mph 3.1 mph 94% 0.00 in 0.00 W/m2
00:45 34.3 °F 32.8 °F 30.30 in NE 4.6 mph 2.4 mph 94% 0.00 in 0.00 W/m2
00:49 34.2 °F 32.7 °F 30.30 in NNE 4.6 mph 3.2 mph 94% 0.00 in 0.00 W/m2
00:55 34.2 °F 32.7 °F 30.30 in Calm     94% 0.00 in 0.00 W/m2
01:00 34.2 °F 32.7 °F 30.30 in Calm     94% 0.00 in 0.00 W/m2
01:04 34.1 °F 32.6 °F 30.30 in NE 5.8 mph 3.9 mph 94% 0.00 in 0.00 W/m2
01:09 34.1 °F 32.6 °F 30.30 in NNE 5.8 mph 2.6 mph 94% 0.00 in 0.00 W/m2
01:15 34.1 °F 32.6 °F 30.29 in NE 6.0 mph 4.0 mph 94% 0.00 in 0.00 W/m2
01:20 34.0 °F 32.5 °F 30.29 in NNE 5.8 mph 4.0 mph 94% 0.00 in 0.00 W/m2
01:25 34.0 °F 32.5 °F 30.29 in NNE 5.0 mph 3.7 mph 94% 0.00 in 0.00 W/m2
01:30 33.9 °F 32.4 °F 30.30 in NE 6.9 mph 4.6 mph 94% 0.00 in 0.00 W/m2
01:35 33.9 °F 32.4 °F 30.30 in NE 8.1 mph 5.1 mph 94% 0.00 in 0.00 W/m2
01:40 33.8 °F 32.3 °F 30.29 in NE 4.0 mph 3.3 mph 94% 0.00 in 0.00 W/m2
01:45 33.8 °F 32.3 °F 30.29 in NNE 6.0 mph 4.0 mph 94% 0.00 in 0.00 W/m2
01:49 33.8 °F 32.3 °F 30.29 in NE 5.8 mph 4.2 mph 94% 0.00 in 0.00 W/m2
01:55 33.7 °F 32.2 °F 30.29 in NE 6.9 mph 4.7 mph 94% 0.00 in 0.00 W/m2
01:59 33.6 °F 32.1 °F 30.29 in NE 5.8 mph 4.7 mph 94% 0.00 in 0.00 W/m2
02:05 33.5 °F 32.0 °F 30.29 in NE 4.6 mph 3.7 mph 94% 0.00 in 0.00 W/m2
02:10 33.4 °F 31.9 °F 30.29 in NNE 5.8 mph 3.8 mph 94% 0.00 in 0.00 W/m2
02:15 33.3 °F 31.8 °F 30.29 in NNE 4.6 mph 3.5 mph 94% 0.00 in 0.00 W/m2
02:19 33.2 °F 31.7 °F 30.29 in NNE 3.5 mph 2.7 mph 94% 0.00 in 0.00 W/m2
02:25 33.2 °F 31.7 °F 30.29 in NNE 4.6 mph 3.5 mph 94% 0.00 in 0.00 W/m2
02:30 33.1 °F 31.6 °F 30.29 in NNE 4.0 mph 2.5 mph 94% 0.00 in 0.00 W/m2
02:34 33.1 °F 31.6 °F 30.29 in North 3.5 mph 0.7 mph 94% 0.00 in 0.00 W/m2
02:39 33.1 °F 31.6 °F 30.29 in Calm     94% 0.00 in 0.00 W/m2
02:44 32.9 °F 31.4 °F 30.29 in Calm     94% 0.00 in 0.00 W/m2
02:49 32.9 °F 31.4 °F 30.29 in Calm     94% 0.00 in 0.00 W/m2
02:55 32.8 °F 31.3 °F 30.29 in Calm     94% 0.00 in 0.00 W/m2
02:59 32.9 °F 31.4 °F 30.29 in Calm     94% 0.01 in 0.00 W/m2
03:05 32.8 °F 31.3 °F 30.29 in Calm     94% 0.01 in 0.00 W/m2
03:09 32.8 °F 31.3 °F 30.29 in Calm     94% 0.01 in 0.00 W/m2
03:14 32.8 °F 31.3 °F 30.28 in Calm     94% 0.01 in 0.00 W/m2
03:20 32.8 °F 31.3 °F 30.28 in Calm     94% 0.01 in 0.00 W/m2
03:25 32.8 °F 31.3 °F 30.28 in Calm     94% 0.01 in 0.00 W/m2
03:29 32.7 °F 31.2 °F 30.28 in Calm     94% 0.01 in 0.00 W/m2
03:35 32.7 °F 31.2 °F 30.28 in Calm     94% 0.01 in 0.00 W/m2
03:39 32.7 °F 31.2 °F 30.28 in Calm     94% 0.01 in 0.00 W/m2
03:44 32.6 °F 31.1 °F 30.28 in Calm     94% 0.01 in 0.00 W/m2
03:49 32.6 °F 31.1 °F 30.28 in Calm     94% 0.01 in 0.00 W/m2
03:55 32.6 °F 31.1 °F 30.28 in Calm     94% 0.02 in 0.00 W/m2
04:00 32.6 °F 31.1 °F 30.28 in Calm     94% 0.01 in 0.00 W/m2
04:05 32.6 °F 31.1 °F 30.28 in Calm     94% 0.01 in 0.00 W/m2
04:10 32.5 °F 31.0 °F 30.28 in Calm     94% 0.01 in 0.00 W/m2
04:15 32.5 °F 31.0 °F 30.28 in Calm     94% 0.01 in 0.00 W/m2
04:20 32.5 °F 31.0 °F 30.28 in Calm     94% 0.01 in 0.00 W/m2
04:25 32.5 °F 31.0 °F 30.28 in Calm     94% 0.01 in 0.00 W/m2
04:29 32.5 °F 31.0 °F 30.28 in Calm     94% 0.01 in 0.00 W/m2
04:34 32.5 °F 31.0 °F 30.28 in Calm     94% 0.02 in 0.00 W/m2
04:39 32.5 °F 31.0 °F 30.28 in Calm     94% 0.02 in 0.00 W/m2
04:45 32.5 °F 31.0 °F 30.28 in Calm     94% 0.02 in 0.00 W/m2
04:50 32.5 °F 31.0 °F 30.28 in Calm     94% 0.01 in 0.00 W/m2
04:54 32.5 °F 31.0 °F 30.28 in Calm     94% 0.01 in 0.00 W/m2
04:59 32.5 °F 31.0 °F 30.28 in Calm     94% 0.01 in 0.00 W/m2
05:04 32.5 °F 31.0 °F 30.28 in Calm     94% 0.01 in 0.00 W/m2
05:09 32.5 °F 31.0 °F 30.28 in Calm     94% 0.01 in 0.00 W/m2
05:14 32.5 °F 31.0 °F 30.28 in Calm     94% 0.02 in 0.00 W/m2
05:19 32.5 °F 31.0 °F 30.28 in Calm     94% 0.02 in 0.00 W/m2
05:25 32.5 °F 31.0 °F 30.28 in Calm     94% 0.02 in 0.00 W/m2
05:29 32.5 °F 31.0 °F 30.28 in Calm     94% 0.02 in 0.00 W/m2
05:35 32.5 °F 31.0 °F 30.28 in Calm     94% 0.01 in 0.00 W/m2
05:39 32.5 °F 31.0 °F 30.28 in Calm     94% 0.01 in 0.00 W/m2
05:45 32.5 °F 31.0 °F 30.28 in Calm     94% 0.02 in 0.00 W/m2
05:49 32.5 °F 31.0 °F 30.28 in Calm     94% 0.02 in 0.00 W/m2
05:55 32.5 °F 31.0 °F 30.29 in Calm     94% 0.02 in 0.00 W/m2
05:59 32.5 °F 31.0 °F 30.28 in Calm     94% 0.02 in 0.00 W/m2
06:05 32.5 °F 31.0 °F 30.28 in Calm     94% 0.02 in 0.00 W/m2
06:10 32.5 °F 31.0 °F 30.28 in Calm     94% 0.02 in 0.00 W/m2
06:15 32.5 °F 31.0 °F 30.28 in Calm     94% 0.01 in 0.00 W/m2
06:20 32.5 °F 31.0 °F 30.28 in Calm     94% 0.01 in 0.00 W/m2
06:25 32.5 °F 31.0 °F 30.29 in Calm     94% 0.01 in 0.00 W/m2
06:29 32.5 °F 31.0 °F 30.29 in Calm     94% 0.02 in 0.00 W/m2
06:35 32.5 °F 31.0 °F 30.29 in Calm     94% 0.02 in 0.00 W/m2
06:40 32.5 °F 31.0 °F 30.29 in Calm     94% 0.02 in 0.00 W/m2
06:45 32.5 °F 31.0 °F 30.29 in Calm     94% 0.01 in 0.00 W/m2
06:50 32.4 °F 30.9 °F 30.29 in Calm     94% 0.01 in 0.00 W/m2
06:54 32.5 °F 31.0 °F 30.29 in Calm     94% 0.01 in 0.00 W/m2
06:59 32.5 °F 31.0 °F 30.29 in Calm     94% 0.01 in 0.00 W/m2
07:04 32.5 °F 31.0 °F 30.30 in Calm     94% 0.01 in 5.00 W/m2
07:09 32.5 °F 31.0 °F 30.29 in Calm     94% 0.01 in 5.00 W/m2
07:15 32.5 °F 31.0 °F 30.30 in Calm     94% 0.01 in 7.00 W/m2
07:19 32.5 °F 31.0 °F 30.30 in Calm     94% 0.01 in 7.00 W/m2
07:25 32.5 °F 31.0 °F 30.29 in Calm     94% 0.01 in 11.00 W/m2
07:30 32.5 °F 31.0 °F 30.29 in Calm     94% 0.00 in 14.00 W/m2
07:35 32.5 °F 31.0 °F 30.30 in Calm     94% 0.00 in 16.00 W/m2
07:39 32.5 °F 31.0 °F 30.30 in Calm     94% 0.00 in 14.00 W/m2
07:44 32.5 °F 31.0 °F 30.29 in Calm     94% 0.00 in 12.00 W/m2
07:50 32.6 °F 31.1 °F 30.29 in Calm     94% 0.00 in 12.00 W/m2
07:54 32.6 °F 31.1 °F 30.30 in Calm     94% 0.00 in 14.00 W/m2
07:59 32.6 °F 31.1 °F 30.30 in Calm     94% 0.00 in 23.00 W/m2
08:04 32.6 °F 31.1 °F 30.30 in Calm     94% 0.00 in 30.00 W/m2
08:10 32.6 °F 31.1 °F 30.30 in Calm     94% 0.00 in 35.00 W/m2
08:14 32.6 °F 31.1 °F 30.31 in Calm     94% 0.00 in 46.00 W/m2
08:20 32.7 °F 31.2 °F 30.30 in Calm     94% 0.01 in 51.00 W/m2
08:25 32.7 °F 31.2 °F 30.30 in Calm     94% 0.01 in 56.00 W/m2
08:29 32.7 °F 31.2 °F 30.30 in Calm     94% 0.01 in 60.00 W/m2
08:34 32.6 °F 31.1 °F 30.30 in Calm     94% 0.01 in 63.00 W/m2
08:39 32.5 °F 31.0 °F 30.31 in Calm     94% 0.01 in 65.00 W/m2
08:45 32.5 °F 31.0 °F 30.31 in North 1.2 mph   94% 0.01 in 67.00 W/m2
08:50 32.5 °F 31.0 °F 30.31 in NNW 4.6 mph 1.5 mph 94% 0.01 in 53.00 W/m2
08:55 32.5 °F 31.0 °F 30.31 in NNW 4.6 mph 3.8 mph 94% 0.01 in 51.00 W/m2
08:59 32.4 °F 30.9 °F 30.31 in North 4.6 mph 3.5 mph 94% 0.01 in 62.00 W/m2
09:04 32.3 °F 30.8 °F 30.30 in NNW 5.8 mph 4.1 mph 94% 0.01 in 70.00 W/m2
09:09 32.2 °F 30.7 °F 30.30 in NNW 4.6 mph 0.2 mph 94% 0.01 in 74.00 W/m2
09:14 32.2 °F 30.7 °F 30.30 in Calm     94% 0.01 in 49.00 W/m2
09:20 32.2 °F 30.7 °F 30.30 in Calm     94% 0.00 in 51.00 W/m2
09:24 32.3 °F 30.8 °F 30.30 in Calm     94% 0.00 in 67.00 W/m2
09:29 32.3 °F 30.8 °F 30.30 in Calm     94% 0.00 in 56.00 W/m2
09:35 32.3 °F 30.8 °F 30.30 in North 4.6 mph 3.3 mph 94% 0.00 in 104.00 W/m2
09:39 32.4 °F 30.9 °F 30.30 in North 5.0 mph 4.1 mph 94% 0.00 in 121.00 W/m2
09:45 32.5 °F 31.0 °F 30.30 in Calm     94% 0.00 in 79.00 W/m2
09:49 32.6 °F 31.1 °F 30.29 in Calm     94% 0.00 in 144.00 W/m2
09:55 32.7 °F 31.2 °F 30.30 in NNW 4.6 mph 1.3 mph 94% 0.00 in 135.00 W/m2
09:59 32.8 °F 31.3 °F 30.30 in NNW 5.8 mph 4.2 mph 94% 0.00 in 169.00 W/m2
10:04 32.9 °F 31.4 °F 30.29 in NNW 6.9 mph 4.8 mph 94% 0.00 in 169.00 W/m2
10:10 33.1 °F 31.6 °F 30.30 in NNW 5.8 mph 4.1 mph 94% 0.00 in 199.00 W/m2
10:15 33.3 °F 31.8 °F 30.29 in NNW 4.6 mph 1.7 mph 94% 0.00 in 195.00 W/m2
10:19 33.5 °F 32.0 °F 30.30 in Calm     94% 0.00 in 197.00 W/m2
10:25 33.9 °F 32.4 °F 30.30 in North 5.8 mph 4.3 mph 94% 0.01 in 193.00 W/m2
10:30 34.1 °F 32.6 °F 30.30 in Calm     94% 0.01 in 199.00 W/m2
10:35 34.2 °F 32.7 °F 30.29 in Calm     94% 0.01 in 155.00 W/m2
10:39 34.1 °F 32.6 °F 30.29 in Calm     94% 0.01 in 130.00 W/m2
10:45 34.1 °F 32.6 °F 30.29 in Calm     94% 0.01 in 130.00 W/m2
10:49 34.2 °F 32.7 °F 30.29 in Calm     94% 0.01 in 128.00 W/m2
10:54 34.1 °F 32.8 °F 30.29 in Calm     95% 0.01 in 139.00 W/m2
10:59 34.0 °F 32.5 °F 30.29 in Calm     94% 0.01 in 144.00 W/m2
11:04 34.4 °F 32.9 °F 30.28 in Calm     94% 0.01 in 148.00 W/m2
11:09 34.5 °F 33.0 °F 30.28 in Calm     94% 0.01 in 137.00 W/m2
11:15 34.6 °F 33.1 °F 30.28 in Calm     94% 0.01 in 146.00 W/m2
11:19 34.6 °F 33.1 °F 30.28 in Calm     94% 0.01 in 146.00 W/m2
11:25 34.8 °F 33.2 °F 30.27 in Calm     94% 0.00 in 125.00 W/m2
11:30 34.9 °F 33.3 °F 30.27 in Calm     94% 0.00 in 111.00 W/m2
11:35 35.1 °F 33.5 °F 30.27 in Calm     94% 0.00 in 111.00 W/m2
11:40 35.1 °F 33.5 °F 30.27 in Calm     94% 0.00 in 104.00 W/m2
11:45 35.1 °F 33.5 °F 30.27 in Calm     94% 0.00 in 98.00 W/m2
11:49 35.2 °F 33.6 °F 30.27 in Calm     94% 0.00 in 125.00 W/m2
11:54 35.2 °F 33.6 °F 30.26 in Calm     94% 0.00 in 121.00 W/m2
11:59 35.4 °F 33.8 °F 30.26 in Calm     94% 0.00 in 125.00 W/m2
12:04 35.4 °F 33.8 °F 30.26 in Calm     94% 0.00 in 105.00 W/m2
12:09 35.5 °F 33.9 °F 30.25 in Calm     94% 0.00 in 116.00 W/m2
12:15 35.8 °F 34.2 °F 30.25 in Calm     94% 0.00 in 107.00 W/m2
12:19 36.0 °F 34.4 °F 30.25 in Calm     94% 0.00 in 91.00 W/m2
12:25 36.0 °F 34.4 °F 30.25 in Calm     94% 0.00 in 81.00 W/m2
12:30 36.1 °F 34.3 °F 30.25 in Calm     93% 0.00 in 97.00 W/m2
12:35 36.2 °F 34.4 °F 30.24 in Calm     93% 0.00 in 81.00 W/m2
12:39 36.3 °F 34.5 °F 30.24 in Calm     93% 0.00 in 72.00 W/m2
12:45 36.3 °F 34.5 °F 30.24 in Calm     93% 0.00 in 86.00 W/m2
12:49 36.4 °F 34.6 °F 30.24 in Calm     93% 0.00 in 88.00 W/m2
12:55 36.3 °F 34.5 °F 30.24 in Calm     93% 0.00 in 97.00 W/m2
12:59 36.2 °F 34.4 °F 30.24 in Calm     93% 0.00 in 91.00 W/m2
13:04 36.2 °F 34.4 °F 30.24 in Calm     93% 0.00 in 107.00 W/m2
13:10 36.3 °F 34.2 °F 30.23 in Calm     92% 0.00 in 88.00 W/m2
13:14 36.4 °F 34.3 °F 30.23 in Calm     92% 0.00 in 102.00 W/m2
13:20 36.5 °F 34.4 °F 30.23 in NNW 3.5 mph 1.0 mph 92% 0.00 in 83.00 W/m2
13:25 36.2 °F 34.1 °F 30.23 in NW 6.9 mph 4.9 mph 92% 0.00 in 88.00 W/m2
13:29 36.1 °F 34.0 °F 30.23 in NW 3.5 mph 1.3 mph 92% 0.00 in 107.00 W/m2
13:34 36.2 °F 34.1 °F 30.23 in WNW 5.8 mph 3.4 mph 92% 0.00 in 97.00 W/m2
13:39 36.0 °F 33.9 °F 30.23 in North 5.8 mph 3.8 mph 92% 0.00 in 95.00 W/m2
13:45 36.0 °F 33.9 °F 30.23 in West 3.5 mph 2.3 mph 92% 0.00 in 86.00 W/m2
13:50 36.2 °F 34.1 °F 30.23 in Calm     92% 0.00 in 93.00 W/m2
13:55 36.3 °F 34.2 °F 30.23 in NW 3.5 mph 1.5 mph 92% 0.00 in 83.00 W/m2
13:59 36.3 °F 34.2 °F 30.23 in WNW 2.3 mph   92% 0.00 in 67.00 W/m2
14:04 36.4 °F 34.3 °F 30.23 in West 4.0 mph 2.4 mph 92% 0.00 in 67.00 W/m2
14:10 36.4 °F 34.3 °F 30.23 in WNW 3.5 mph 1.8 mph 92% 0.00 in 121.00 W/m2
14:14 36.5 °F 34.1 °F 30.22 in NNW 5.8 mph 3.5 mph 91% 0.00 in 95.00 W/m2
14:19 36.4 °F 34.0 °F 30.22 in NW 3.5 mph 1.8 mph 91% 0.00 in 81.00 W/m2
14:24 36.4 °F 34.0 °F 30.23 in NW 3.5 mph 1.4 mph 91% 0.00 in 63.00 W/m2
14:29 36.4 °F 34.0 °F 30.23 in WNW 4.6 mph 2.4 mph 91% 0.00 in 69.00 W/m2
14:34 36.4 °F 34.0 °F 30.23 in West 4.0 mph 2.4 mph 91% 0.00 in 70.00 W/m2
14:39 36.4 °F 34.0 °F 30.22 in WNW 3.5 mph 1.0 mph 91% 0.00 in 76.00 W/m2
14:44 36.4 °F 34.0 °F 30.22 in NW 6.9 mph 3.0 mph 91% 0.00 in 69.00 W/m2
14:50 36.4 °F 34.0 °F 30.22 in North 3.5 mph 1.8 mph 91% 0.00 in 69.00 W/m2
14:55 36.5 °F 33.8 °F 30.22 in WNW 3.5 mph 1.9 mph 90% 0.00 in 65.00 W/m2
14:59 36.5 °F 33.8 °F 30.22 in NW 3.5 mph 1.4 mph 90% 0.00 in 69.00 W/m2
15:04 36.4 °F 33.7 °F 30.22 in NW 3.5 mph 0.7 mph 90% 0.00 in 56.00 W/m2
15:09 36.4 °F 33.7 °F 30.22 in WNW 5.8 mph 1.6 mph 90% 0.00 in 51.00 W/m2
15:15 36.4 °F 33.7 °F 30.22 in NW 3.5 mph 1.4 mph 90% 0.00 in 44.00 W/m2
15:19 36.4 °F 33.7 °F 30.22 in WNW 3.5 mph 0.6 mph 90% 0.00 in 40.00 W/m2
15:25 36.5 °F 33.8 °F 30.22 in NW 3.5 mph 2.5 mph 90% 0.00 in 44.00 W/m2
15:30 36.3 °F 33.6 °F 30.22 in NW 2.3 mph 1.0 mph 90% 0.00 in 46.00 W/m2
15:34 36.3 °F 33.6 °F 30.23 in WNW 4.6 mph 2.1 mph 90% 0.00 in 40.00 W/m2
15:39 36.2 °F 33.5 °F 30.23 in NW 3.5 mph 1.7 mph 90% 0.00 in 37.00 W/m2
15:44 36.0 °F 33.4 °F 30.22 in NW 3.5 mph 2.9 mph 90% 0.00 in 37.00 W/m2
15:50 35.8 °F 33.2 °F 30.22 in WNW 2.3 mph 1.0 mph 90% 0.00 in 37.00 W/m2
15:55 35.7 °F 33.1 °F 30.22 in WNW 1.2 mph 0.6 mph 90% 0.00 in 32.00 W/m2
15:59 35.6 °F 33.0 °F 30.22 in WNW 3.0 mph 1.2 mph 90% 0.00 in 25.00 W/m2
16:05 35.4 °F 32.8 °F 30.22 in WNW 2.3 mph 0.7 mph 90% 0.00 in 16.00 W/m2
16:10 35.4 °F 33.0 °F 30.22 in Calm     91% 0.00 in 11.00 W/m2
16:14 35.3 °F 32.7 °F 30.23 in WNW 4.0 mph 1.7 mph 90% 0.00 in 9.00 W/m2
16:20 35.2 °F 32.6 °F 30.23 in NW 3.5 mph 1.4 mph 90% 0.00 in 5.00 W/m2
16:25 35.0 °F 32.4 °F 30.22 in West 1.2 mph   90% 0.00 in 0.00 W/m2
16:29 34.9 °F 32.3 °F 30.22 in WNW 3.5 mph 1.0 mph 90% 0.00 in 0.00 W/m2
16:34 34.7 °F 32.1 °F 30.22 in WNW 4.6 mph 1.4 mph 90% 0.00 in 0.00 W/m2
16:39 34.5 °F 31.9 °F 30.23 in NW 3.5 mph 0.6 mph 90% 0.00 in 0.00 W/m2
16:44 34.4 °F 31.8 °F 30.22 in NW 2.3 mph 1.4 mph 90% 0.00 in 0.00 W/m2
16:50 34.2 °F 31.6 °F 30.23 in North 3.5 mph 1.2 mph 90% 0.00 in 0.00 W/m2
16:55 33.9 °F 31.3 °F 30.23 in WNW 2.3 mph 0.6 mph 90% 0.00 in 0.00 W/m2
16:59 33.8 °F 31.2 °F 30.23 in WNW 1.2 mph 0.8 mph 90% 0.00 in 0.00 W/m2
17:04 33.7 °F 31.1 °F 30.23 in Calm     90% 0.00 in 0.00 W/m2
17:09 33.5 °F 30.9 °F 30.23 in West 2.3 mph 0.7 mph 90% 0.00 in 0.00 W/m2
17:15 33.4 °F 30.8 °F 30.23 in West 1.2 mph 0.2 mph 90% 0.00 in 0.00 W/m2
17:20 33.4 °F 30.8 °F 30.23 in Calm     90% 0.00 in 0.00 W/m2
17:24 33.3 °F 30.7 °F 30.23 in West 1.2 mph 0.1 mph 90% 0.00 in 0.00 W/m2
17:30 33.4 °F 31.1 °F 30.23 in WSW 2.3 mph 0.6 mph 91% 0.00 in 0.00 W/m2
17:35 33.4 °F 31.1 °F 30.23 in WSW 2.3 mph 0.4 mph 91% 0.00 in 0.00 W/m2
17:39 33.4 °F 30.8 °F 30.24 in Calm     90% 0.00 in 0.00 W/m2
17:45 33.3 °F 31.0 °F 30.24 in Calm     91% 0.00 in 0.00 W/m2
17:50 33.2 °F 30.6 °F 30.24 in North 2.3 mph 0.9 mph 90% 0.00 in 0.00 W/m2
17:55 33.2 °F 30.9 °F 30.23 in NW 3.5 mph 0.5 mph 91% 0.00 in 0.00 W/m2
18:00 33.0 °F 30.4 °F 30.24 in NW 3.5 mph 1.4 mph 90% 0.00 in 0.00 W/m2
18:04 33.0 °F 30.4 °F 30.24 in WNW 5.8 mph 0.7 mph 90% 0.00 in 0.00 W/m2
18:09 33.0 °F 30.4 °F 30.24 in WNW 1.2 mph 0.3 mph 90% 0.00 in 0.00 W/m2
18:14 33.1 °F 30.5 °F 30.24 in WNW 3.5 mph 0.9 mph 90% 0.00 in 0.00 W/m2
18:20 33.3 °F 30.7 °F 30.24 in WNW 1.2 mph   90% 0.00 in 0.00 W/m2
18:25 33.3 °F 30.7 °F 30.24 in North 2.3 mph 0.4 mph 90% 0.00 in 0.00 W/m2
18:29 33.3 °F 30.7 °F 30.23 in Calm     90% 0.00 in 0.00 W/m2
18:35 33.2 °F 30.6 °F 30.23 in Calm     90% 0.00 in 0.00 W/m2
18:40 33.1 °F 30.5 °F 30.23 in WSW 1.2 mph 0.2 mph 90% 0.00 in 0.00 W/m2
18:44 33.0 °F 30.1 °F 30.23 in Calm     89% 0.00 in 0.00 W/m2
18:50 33.0 °F 30.1 °F 30.23 in Calm     89% 0.00 in 0.00 W/m2
18:55 33.0 °F 30.1 °F 30.23 in Calm     89% 0.00 in 0.00 W/m2
18:59 32.9 °F 30.0 °F 30.23 in Calm     89% 0.00 in 0.00 W/m2
19:04 32.8 °F 29.9 °F 30.23 in Calm     89% 0.00 in 0.00 W/m2
19:09 32.7 °F 29.8 °F 30.23 in Calm     89% 0.00 in 0.00 W/m2
19:15 32.6 °F 29.7 °F 30.23 in Calm     89% 0.00 in 0.00 W/m2
19:20 32.5 °F 29.6 °F 30.23 in Calm     89% 0.00 in 0.00 W/m2
19:25 32.4 °F 29.5 °F 30.23 in WSW 1.2 mph 0.1 mph 89% 0.00 in 0.00 W/m2
19:30 32.1 °F 29.2 °F 30.23 in WSW 2.3 mph 0.4 mph 89% 0.00 in 0.00 W/m2
19:34 31.9 °F 29.0 °F 30.23 in WSW 1.2 mph   89% 0.00 in 0.00 W/m2
19:39 31.7 °F 28.8 °F 30.23 in Calm     89% 0.00 in 0.00 W/m2
19:44 31.5 °F 28.9 °F 30.23 in Calm   0.2 mph 90% 0.00 in 0.00 W/m2
19:49 31.3 °F 28.7 °F 30.23 in Calm     90% 0.00 in 0.00 W/m2
19:55 31.1 °F 28.5 °F 30.23 in Calm     90% 0.00 in 0.00 W/m2
19:59 31.1 °F 28.5 °F 30.23 in Calm     90% 0.00 in 0.00 W/m2
20:04 30.6 °F 28.0 °F 30.23 in Calm     90% 0.00 in 0.00 W/m2
20:09 30.5 °F 27.9 °F 30.23 in Calm     90% 0.00 in 0.00 W/m2
20:15 30.5 °F 27.9 °F 30.23 in WSW 2.3 mph 0.3 mph 90% 0.00 in 0.00 W/m2
20:19 30.4 °F 28.1 °F 30.22 in Calm     91% 0.00 in 0.00 W/m2
20:24 30.2 °F 27.6 °F 30.22 in Calm     90% 0.00 in 0.00 W/m2
20:29 30.0 °F 27.4 °F 30.22 in Calm     90% 0.00 in 0.00 W/m2
20:34 30.0 °F 27.4 °F 30.22 in Calm     90% 0.00 in 0.00 W/m2
20:40 30.0 °F 27.7 °F 30.22 in Calm     91% 0.00 in 0.00 W/m2
20:45 29.9 °F 27.6 °F 30.22 in Calm     91% 0.00 in 0.00 W/m2
20:50 29.8 °F 27.5 °F 30.22 in Calm     91% 0.00 in 0.00 W/m2
20:55 29.7 °F 27.4 °F 30.22 in Calm     91% 0.00 in 0.00 W/m2
20:59 29.5 °F 27.2 °F 30.22 in Calm     91% 0.00 in 0.00 W/m2
21:04 29.4 °F 27.1 °F 30.21 in Calm     91% 0.00 in 0.00 W/m2
21:09 29.3 °F 27.0 °F 30.22 in Calm     91% 0.00 in 0.00 W/m2
21:14 29.2 °F 26.9 °F 30.21 in Calm     91% 0.00 in 0.00 W/m2
21:20 29.2 °F 26.9 °F 30.21 in Calm     91% 0.00 in 0.00 W/m2
21:25 29.1 °F 26.8 °F 30.21 in Calm     91% 0.00 in 0.00 W/m2
21:29 29.0 °F 26.7 °F 30.21 in Calm     91% 0.00 in 0.00 W/m2
21:34 28.9 °F 26.6 °F 30.21 in Calm     91% 0.00 in 0.00 W/m2
21:39 28.7 °F 26.4 °F 30.21 in West 1.2 mph 0.4 mph 91% 0.00 in 0.00 W/m2
21:45 28.6 °F 26.3 °F 30.21 in Calm     91% 0.00 in 0.00 W/m2
21:50 28.5 °F 26.2 °F 30.21 in West 1.2 mph 0.2 mph 91% 0.00 in 0.00 W/m2
21:55 28.4 °F 26.1 °F 30.21 in West 1.2 mph 0.2 mph 91% 0.00 in 0.00 W/m2
22:00 28.3 °F 26.0 °F 30.21 in West 1.2 mph 0.3 mph 91% 0.00 in 0.00 W/m2
22:05 28.1 °F 25.8 °F 30.20 in Calm     91% 0.00 in 0.00 W/m2
22:09 28.0 °F 25.7 °F 30.20 in Calm     91% 0.00 in 0.00 W/m2
22:14 27.9 °F 25.6 °F 30.20 in Calm     91% 0.00 in 0.00 W/m2
22:19 27.9 °F 25.6 °F 30.20 in Calm     91% 0.00 in 0.00 W/m2
22:25 27.7 °F 25.7 °F 30.20 in Calm     92% 0.00 in 0.00 W/m2
22:30 27.8 °F 25.8 °F 30.20 in West 1.2 mph   92% 0.00 in 0.00 W/m2
22:35 27.8 °F 25.8 °F 30.20 in Calm     92% 0.00 in 0.00 W/m2
22:39 27.7 °F 25.7 °F 30.20 in Calm     92% 0.00 in 0.00 W/m2
22:44 27.5 °F 25.5 °F 30.20 in Calm     92% 0.00 in 0.00 W/m2
22:49 27.4 °F 25.4 °F 30.20 in Calm     92% 0.00 in 0.00 W/m2
22:54 27.4 °F 25.4 °F 30.20 in Calm     92% 0.00 in 0.00 W/m2
23:00 27.4 °F 25.4 °F 30.20 in Calm     92% 0.00 in 0.00 W/m2
23:05 27.5 °F 25.5 °F 30.20 in West 1.2 mph   92% 0.00 in 0.00 W/m2
23:09 27.5 °F 25.5 °F 30.20 in Calm     92% 0.00 in 0.00 W/m2
23:15 27.5 °F 25.5 °F 30.20 in Calm     92% 0.00 in 0.00 W/m2
23:20 27.5 °F 25.5 °F 30.20 in Calm     92% 0.00 in 0.00 W/m2
23:24 27.4 °F 25.4 °F 30.19 in Calm     92% 0.00 in 0.00 W/m2
23:29 27.4 °F 25.4 °F 30.20 in Calm     92% 0.00 in 0.00 W/m2
23:34 27.3 °F 25.3 °F 30.20 in Calm     92% 0.00 in 0.00 W/m2
23:39 27.2 °F 25.2 °F 30.19 in Calm     92% 0.00 in 0.00 W/m2
23:44 27.2 °F 25.2 °F 30.19 in Calm     92% 0.00 in 0.00 W/m2
23:50 27.2 °F 25.2 °F 30.19 in Calm     92% 0.00 in 0.00 W/m2
23:55 27.0 °F 25.0 °F 30.19 in Calm     92% 0.00 in 0.00 W/m2
23:59 27.0 °F 25.0 °F 30.19 in Calm     92% 0.00 in 0.00 W/m2
Bourbonnais, Illinois, USA
Compliments of Weather Underground - 4 mb